createdAt,value
2023-01-29T00:01:45.554Z,3.01
2023-01-29T00:04:50.297Z,3.06
2023-01-29T00:07:56.488Z,3.05
2023-01-29T00:11:03.347Z,3.05
2023-01-29T00:14:08.388Z,3.04
2023-01-29T00:17:12.856Z,3.13
2023-01-29T00:20:27.962Z,3.11
2023-01-29T00:23:43.492Z,3.15
2023-01-29T00:26:51.227Z,3.23
2023-01-29T00:30:12.784Z,3.16
2023-01-29T00:33:16.861Z,3.16
2023-01-29T00:36:22.378Z,3.17
2023-01-29T00:39:47.551Z,3.24
2023-01-29T00:43:11.700Z,3.17
2023-01-29T00:46:16.177Z,3.24
2023-01-29T00:49:20.969Z,3.22
2023-01-29T00:52:26.059Z,3.20
2023-01-29T00:55:30.575Z,3.23
2023-01-29T00:58:35.167Z,3.29
2023-01-29T01:01:57.824Z,3.33
2023-01-29T01:05:06.219Z,3.29
2023-01-29T01:08:29.775Z,3.29
2023-01-29T01:11:34.286Z,3.32
2023-01-29T01:14:38.371Z,3.40
2023-01-29T01:17:42.604Z,3.39
2023-01-29T01:20:51.525Z,3.37
2023-01-29T01:23:56.047Z,3.35
2023-01-29T01:27:01.042Z,3.37
2023-01-29T01:30:06.217Z,3.38
2023-01-29T01:33:10.627Z,3.39
2023-01-29T01:36:15.831Z,3.44
2023-01-29T01:39:20.077Z,3.46
2023-01-29T01:42:33.373Z,3.46
2023-01-29T01:45:37.772Z,3.46
2023-01-29T01:48:43.615Z,3.46
2023-01-29T01:51:52.093Z,3.43
2023-01-29T01:54:58.018Z,3.51
2023-01-29T01:58:12.472Z,3.51
2023-01-29T02:01:17.884Z,3.48
2023-01-29T02:04:43.641Z,3.51
2023-01-29T02:08:08.884Z,3.50
2023-01-29T02:11:13.667Z,3.48
2023-01-29T02:14:18.060Z,3.48
2023-01-29T02:17:22.301Z,3.52
2023-01-29T02:20:34.820Z,3.47
2023-01-29T02:24:18.809Z,3.48
2023-01-29T02:27:57.245Z,3.46
2023-01-29T02:31:41.503Z,3.52
2023-01-29T02:35:15.537Z,3.47
2023-01-29T02:38:50.711Z,3.50
2023-01-29T02:42:07.320Z,3.49
2023-01-29T02:45:19.183Z,3.50
2023-01-29T02:48:25.415Z,3.44
2023-01-29T02:51:45.198Z,3.54
2023-01-29T02:55:08.757Z,3.52
2023-01-29T02:58:50.809Z,3.46
2023-01-29T03:02:26.492Z,3.47
2023-01-29T03:05:55.970Z,3.44
2023-01-29T03:09:09.572Z,3.43
2023-01-29T03:12:33.979Z,3.44
2023-01-29T03:15:48.399Z,3.39
2023-01-29T03:19:10.886Z,3.43
2023-01-29T03:22:17.351Z,3.44
2023-01-29T03:25:44.666Z,3.46
2023-01-29T03:29:07.930Z,3.44
2023-01-29T03:32:14.640Z,3.42
2023-01-29T03:35:33.458Z,3.45
2023-01-29T03:38:37.691Z,3.48
2023-01-29T03:42:17.678Z,3.45
2023-01-29T03:45:43.168Z,3.45
2023-01-29T03:48:53.909Z,3.43
2023-01-29T03:52:08.618Z,3.42
2023-01-29T03:55:29.177Z,3.41
2023-01-29T03:58:55.934Z,3.43
2023-01-29T04:02:06.086Z,3.45
2023-01-29T04:05:18.765Z,3.40
2023-01-29T04:08:31.123Z,3.39
2023-01-29T04:11:42.814Z,3.36
2023-01-29T04:14:50.298Z,3.34
2023-01-29T04:17:57.112Z,3.39
2023-01-29T04:21:02.501Z,3.37
2023-01-29T04:24:07.927Z,3.34
2023-01-29T04:27:12.225Z,3.33
2023-01-29T04:30:28.102Z,3.34
2023-01-29T04:34:00.872Z,3.35
2023-01-29T04:37:19.562Z,3.32
2023-01-29T04:40:56.602Z,3.33
2023-01-29T04:44:22.948Z,3.34
2023-01-29T04:48:05.568Z,3.29
2023-01-29T04:51:21.096Z,3.30
2023-01-29T04:54:34.357Z,3.30
2023-01-29T04:58:12.785Z,3.25
2023-01-29T05:01:19.005Z,3.24
2023-01-29T05:04:24.534Z,3.24
2023-01-29T05:07:31.165Z,3.14
2023-01-29T05:10:35.714Z,3.06
2023-01-29T05:13:43.098Z,3.08
2023-01-29T05:16:53.353Z,3.10
2023-01-29T05:19:58.303Z,3.08
2023-01-29T05:23:02.482Z,3.09
2023-01-29T05:26:06.787Z,2.98
2023-01-29T05:29:12.253Z,3.00
2023-01-29T05:32:17.093Z,2.96
2023-01-29T05:35:21.520Z,2.95
2023-01-29T05:38:26.241Z,2.93
2023-01-29T05:41:30.621Z,2.92
2023-01-29T05:44:34.928Z,2.95
2023-01-29T05:47:39.332Z,2.90
2023-01-29T05:50:43.570Z,2.91
2023-01-29T05:53:47.376Z,2.94
2023-01-29T05:56:51.885Z,2.95
2023-01-29T05:59:56.162Z,2.88
2023-01-29T06:03:00.968Z,2.87
2023-01-29T06:06:06.062Z,2.88
2023-01-29T06:09:11.913Z,2.91
2023-01-29T06:12:15.754Z,2.88
2023-01-29T06:15:20.392Z,2.85
2023-01-29T06:18:24.782Z,2.83
2023-01-29T06:21:29.070Z,2.85
2023-01-29T06:24:33.393Z,2.89
2023-01-29T06:27:37.839Z,2.89
2023-01-29T06:30:42.048Z,2.89
2023-01-29T06:33:46.957Z,2.89
2023-01-29T06:36:51.524Z,2.84
2023-01-29T06:39:55.605Z,2.84
2023-01-29T06:43:03.145Z,2.83
2023-01-29T06:46:08.836Z,2.82
2023-01-29T06:49:13.189Z,2.84
2023-01-29T06:52:17.485Z,2.82
2023-01-29T06:55:21.944Z,2.81
2023-01-29T06:58:26.323Z,2.80
2023-01-29T07:01:36.240Z,2.79
2023-01-29T07:04:42.712Z,2.79
2023-01-29T07:07:46.720Z,2.78
2023-01-29T07:10:51.021Z,2.80
2023-01-29T07:13:55.206Z,2.85
2023-01-29T07:16:59.627Z,2.84
2023-01-29T07:20:04.221Z,2.81
2023-01-29T07:23:13.935Z,2.83
2023-01-29T07:26:18.330Z,2.85
2023-01-29T07:29:22.867Z,2.89
2023-01-29T07:32:29.105Z,2.91
2023-01-29T07:35:42.011Z,2.90
2023-01-29T07:38:51.103Z,2.94
2023-01-29T07:41:55.485Z,2.95
2023-01-29T07:44:59.706Z,2.95
2023-01-29T07:48:05.965Z,2.96
2023-01-29T07:51:10.440Z,3.00
2023-01-29T07:54:14.729Z,2.98
2023-01-29T07:57:18.983Z,3.03
2023-01-29T08:00:23.706Z,2.99
2023-01-29T08:03:28.230Z,3.04
2023-01-29T08:06:32.575Z,3.05
2023-01-29T08:09:37.315Z,3.04
2023-01-29T08:12:41.570Z,3.05
2023-01-29T08:15:46.153Z,3.07
2023-01-29T08:18:50.452Z,3.08
2023-01-29T08:21:54.625Z,3.07
2023-01-29T08:25:06.156Z,3.05
2023-01-29T08:28:12.463Z,3.07
2023-01-29T08:31:18.146Z,3.06
2023-01-29T08:34:22.703Z,3.14
2023-01-29T08:37:27.168Z,3.11
2023-01-29T08:40:34.740Z,3.09
2023-01-29T08:43:40.528Z,3.13
2023-01-29T08:46:44.858Z,3.15
2023-01-29T08:49:49.039Z,3.10
2023-01-29T08:53:44.464Z,3.14
2023-01-29T08:56:55.131Z,3.23
2023-01-29T08:59:59.217Z,3.24
2023-01-29T09:03:04.634Z,3.25
2023-01-29T09:06:12.114Z,3.27
2023-01-29T09:09:16.678Z,3.35
2023-01-29T09:12:20.932Z,3.35
2023-01-29T09:15:25.511Z,3.39
2023-01-29T09:18:31.095Z,3.39
2023-01-29T09:21:35.175Z,3.41
2023-01-29T09:24:39.401Z,3.43
2023-01-29T09:27:43.811Z,3.48
2023-01-29T09:30:48.156Z,3.43
2023-01-29T09:33:52.672Z,3.46
2023-01-29T09:36:56.890Z,3.50
2023-01-29T09:40:04.064Z,3.50
2023-01-29T09:43:19.157Z,3.47
2023-01-29T09:46:31.827Z,3.52
2023-01-29T09:49:42.503Z,3.50
2023-01-29T09:52:52.026Z,3.56
2023-01-29T09:56:19.991Z,3.59
2023-01-29T09:59:29.901Z,3.56
2023-01-29T10:03:08.426Z,3.62
2023-01-29T10:06:53.732Z,3.66
2023-01-29T10:10:30.183Z,3.64
2023-01-29T10:14:21.413Z,3.65
2023-01-29T10:17:43.744Z,3.65
2023-01-29T10:21:17.310Z,3.65
2023-01-29T10:25:00.110Z,3.63
2023-01-29T10:28:20.863Z,3.67
2023-01-29T10:31:32.719Z,3.65
2023-01-29T10:34:46.479Z,3.72
2023-01-29T10:37:54.307Z,3.76
2023-01-29T10:41:14.121Z,3.73
2023-01-29T10:44:31.263Z,3.76
2023-01-29T10:48:33.886Z,3.76
2023-01-29T10:52:14.729Z,3.71
2023-01-29T10:55:40.360Z,3.74
2023-01-29T10:58:57.392Z,3.70
2023-01-29T11:02:05.023Z,3.71
2023-01-29T11:05:25.851Z,3.70
2023-01-29T11:09:05.147Z,3.70
2023-01-29T11:12:22.788Z,3.69
2023-01-29T11:15:34.954Z,3.66
2023-01-29T11:18:50.689Z,3.61
2023-01-29T11:22:02.929Z,3.62
2023-01-29T11:25:21.450Z,3.59
2023-01-29T11:28:46.805Z,3.59
2023-01-29T11:31:51.034Z,3.58
2023-01-29T11:35:13.972Z,3.61
2023-01-29T11:38:29.657Z,3.62
2023-01-29T11:41:52.854Z,3.63
2023-01-29T11:44:57.306Z,3.64
2023-01-29T11:48:01.769Z,3.62
2023-01-29T11:51:06.606Z,3.67
2023-01-29T11:54:19.641Z,3.66
2023-01-29T11:57:34.316Z,3.72
2023-01-29T12:00:41.844Z,3.75
2023-01-29T12:03:54.077Z,3.73
2023-01-29T12:06:58.644Z,3.79
2023-01-29T12:10:03.614Z,3.78
2023-01-29T12:13:10.936Z,3.76
2023-01-29T12:16:39.415Z,3.75
2023-01-29T12:20:03.861Z,3.74
2023-01-29T12:23:43.008Z,3.81
2023-01-29T12:26:54.407Z,3.82
2023-01-29T12:30:15.426Z,3.81
2023-01-29T12:33:25.536Z,3.82
2023-01-29T12:36:55.632Z,3.82
2023-01-29T12:40:01.710Z,3.80
2023-01-29T12:43:17.765Z,3.81
2023-01-29T12:46:30.233Z,3.86
2023-01-29T12:50:01.789Z,3.79
2023-01-29T12:53:31.796Z,3.84
2023-01-29T12:56:47.922Z,3.81
2023-01-29T13:00:27.637Z,3.79
2023-01-29T13:03:50.637Z,3.82
2023-01-29T13:07:04.921Z,3.79
2023-01-29T13:10:19.901Z,3.81
2023-01-29T13:13:39.393Z,3.85
2023-01-29T13:16:48.217Z,3.85
2023-01-29T13:20:01.168Z,3.81
2023-01-29T13:23:34.203Z,3.81
2023-01-29T13:26:50.365Z,3.80
2023-01-29T13:29:57.366Z,3.84
2023-01-29T13:33:11.129Z,3.84
2023-01-29T13:36:23.278Z,3.85
2023-01-29T13:39:45.637Z,3.88
2023-01-29T13:43:00.206Z,3.88
2023-01-29T13:46:21.201Z,3.89
2023-01-29T13:49:48.006Z,3.88
2023-01-29T13:53:06.453Z,3.90
2023-01-29T13:56:37.874Z,3.90
2023-01-29T13:59:52.570Z,3.88
2023-01-29T14:03:23.747Z,3.89
2023-01-29T14:06:44.046Z,3.82
2023-01-29T14:09:49.659Z,3.87
2023-01-29T14:13:18.367Z,3.83
2023-01-29T14:16:22.973Z,3.84
2023-01-29T14:19:27.218Z,3.83
2023-01-29T14:22:34.730Z,3.78
2023-01-29T14:25:41.233Z,3.84
2023-01-29T14:29:14.509Z,3.84
2023-01-29T14:32:25.121Z,3.81
2023-01-29T14:35:34.829Z,3.81
2023-01-29T14:38:46.437Z,3.82
2023-01-29T14:41:52.725Z,3.76
2023-01-29T14:45:08.563Z,3.81
2023-01-29T14:48:42.340Z,3.79
2023-01-29T14:51:51.357Z,3.81
2023-01-29T14:55:06.061Z,3.81
2023-01-29T14:59:38.787Z,3.79
2023-01-29T15:03:41.634Z,3.80
2023-01-29T15:06:55.197Z,3.84
2023-01-29T15:10:57.168Z,3.76
2023-01-29T15:15:04.579Z,3.77
2023-01-29T15:19:04.931Z,3.77
2023-01-29T15:23:09.533Z,3.72
2023-01-29T15:30:45.182Z,3.72
2023-01-29T15:34:05.047Z,3.70
2023-01-29T15:38:14.903Z,3.70
2023-01-29T15:41:25.827Z,3.69
2023-01-29T15:44:48.220Z,3.72
2023-01-29T15:48:03.031Z,3.65
2023-01-29T15:51:11.952Z,3.68
2023-01-29T15:54:18.092Z,3.67
2023-01-29T15:57:30.962Z,3.65
2023-01-29T16:00:35.739Z,3.68
2023-01-29T16:03:40.297Z,3.71
2023-01-29T16:06:45.108Z,3.68
2023-01-29T16:09:52.693Z,3.64
2023-01-29T16:12:58.557Z,3.68
2023-01-29T16:16:19.153Z,3.68
2023-01-29T16:19:27.111Z,3.70
2023-01-29T16:22:37.333Z,3.62
2023-01-29T16:25:41.915Z,3.63
2023-01-29T16:28:47.520Z,3.64
2023-01-29T16:32:00.490Z,3.68
2023-01-29T16:35:06.070Z,3.66
2023-01-29T16:38:31.577Z,3.61
2023-01-29T16:41:38.536Z,3.57
2023-01-29T16:44:52.382Z,3.59
2023-01-29T16:48:27.874Z,3.61
2023-01-29T16:51:39.481Z,3.64
2023-01-29T16:54:43.997Z,3.59
2023-01-29T16:57:54.159Z,3.62
2023-01-29T17:01:11.442Z,3.58
2023-01-29T17:04:19.049Z,3.55
2023-01-29T17:07:23.809Z,3.52
2023-01-29T17:10:30.189Z,3.49
2023-01-29T17:13:44.332Z,3.42
2023-01-29T17:17:14.986Z,3.38
2023-01-29T17:20:19.877Z,3.37
2023-01-29T17:23:24.341Z,3.33
2023-01-29T17:26:30.745Z,3.32
2023-01-29T17:29:37.848Z,3.30
2023-01-29T17:32:44.234Z,3.28
2023-01-29T17:35:50.629Z,3.28
2023-01-29T17:38:55.549Z,3.28
2023-01-29T17:42:01.367Z,3.27
2023-01-29T17:45:13.248Z,3.28
2023-01-29T17:48:27.115Z,3.27
2023-01-29T17:51:31.576Z,3.23
2023-01-29T17:54:36.178Z,3.24
2023-01-29T17:57:40.461Z,3.26
2023-01-29T18:00:45.637Z,3.23
2023-01-29T18:03:50.162Z,3.28
2023-01-29T18:07:00.016Z,3.24
2023-01-29T18:10:05.169Z,3.25
2023-01-29T18:13:09.742Z,3.30
2023-01-29T18:16:14.162Z,3.31
2023-01-29T18:19:27.613Z,3.31
2023-01-29T18:22:32.350Z,3.31
2023-01-29T18:25:36.581Z,3.32
2023-01-29T18:28:43.393Z,3.25
2023-01-29T18:31:49.559Z,3.26
2023-01-29T18:34:54.626Z,3.23
2023-01-29T18:37:59.177Z,3.19
2023-01-29T18:41:11.944Z,3.18
2023-01-29T18:44:16.345Z,3.23
2023-01-29T18:47:20.549Z,3.21
2023-01-29T18:50:26.382Z,3.21
2023-01-29T18:53:32.829Z,3.26
2023-01-29T18:57:13.117Z,3.26
2023-01-29T19:00:08.875Z,3.22
2023-01-29T19:03:13.698Z,3.21
2023-01-29T19:06:18.404Z,3.25
2023-01-29T19:09:25.366Z,3.23
2023-01-29T19:12:33.968Z,3.28
2023-01-29T19:15:47.538Z,3.26
2023-01-29T19:19:16.527Z,3.28
2023-01-29T19:22:28.411Z,3.30
2023-01-29T19:25:52.208Z,3.28
2023-01-29T19:29:16.325Z,3.24
2023-01-29T19:32:35.342Z,3.24
2023-01-29T19:35:43.818Z,3.25
2023-01-29T19:38:50.418Z,3.26
2023-01-29T19:41:54.968Z,3.20
2023-01-29T19:44:59.290Z,3.23
2023-01-29T19:48:03.687Z,3.27
2023-01-29T19:51:10.577Z,3.28
2023-01-29T19:54:22.002Z,3.28
2023-01-29T19:57:26.336Z,3.29
2023-01-29T20:00:31.331Z,3.27
2023-01-29T20:03:44.659Z,3.25
2023-01-29T20:06:52.687Z,3.26
2023-01-29T20:10:00.511Z,3.26
2023-01-29T20:13:06.074Z,3.29
2023-01-29T20:16:14.029Z,3.26
2023-01-29T20:19:22.155Z,3.28
2023-01-29T20:22:27.292Z,3.27
2023-01-29T20:25:31.923Z,3.29
2023-01-29T20:28:42.790Z,3.34
2023-01-29T20:31:47.704Z,3.34
2023-01-29T20:35:06.042Z,3.30
2023-01-29T20:38:10.793Z,3.33
2023-01-29T20:41:27.515Z,3.36
2023-01-29T20:44:32.379Z,3.33
2023-01-29T20:47:37.548Z,3.36
2023-01-29T20:50:43.102Z,3.35
2023-01-29T20:53:57.539Z,3.32
2023-01-29T20:57:02.136Z,3.36
2023-01-29T21:00:12.065Z,3.32
2023-01-29T21:03:16.896Z,3.34
2023-01-29T21:06:24.555Z,3.36
2023-01-29T21:09:29.150Z,3.37
2023-01-29T21:12:33.479Z,3.35
2023-01-29T21:15:38.646Z,3.33
2023-01-29T21:18:47.546Z,3.33
2023-01-29T21:21:51.902Z,3.37
2023-01-29T21:24:56.351Z,3.40
2023-01-29T21:28:01.163Z,3.43
2023-01-29T21:31:12.882Z,3.40
2023-01-29T21:34:17.307Z,3.46
2023-01-29T21:37:21.875Z,3.40
2023-01-29T21:40:26.160Z,3.46
2023-01-29T21:43:30.651Z,3.47
2023-01-29T21:46:35.160Z,3.47
2023-01-29T21:49:44.663Z,3.46
2023-01-29T21:52:49.291Z,3.50
2023-01-29T21:56:01.225Z,3.52
2023-01-29T21:59:11.511Z,3.53
2023-01-29T22:02:16.279Z,3.51
2023-01-29T22:05:20.618Z,3.56
2023-01-29T22:08:31.957Z,3.56
2023-01-29T22:11:39.962Z,3.59
2023-01-29T22:14:48.496Z,3.61
2023-01-29T22:17:55.197Z,3.57
2023-01-29T22:21:05.112Z,3.58
2023-01-29T22:24:09.762Z,3.62
2023-01-29T22:27:18.428Z,3.60
2023-01-29T22:30:23.412Z,3.60
2023-01-29T22:33:28.400Z,3.57
2023-01-29T22:36:32.994Z,3.57
2023-01-29T22:39:37.455Z,3.57
2023-01-29T22:42:41.696Z,3.59
2023-01-29T22:45:46.633Z,3.60
2023-01-29T22:48:54.643Z,3.63
2023-01-29T22:52:11.880Z,3.61
2023-01-29T22:55:37.426Z,3.62
2023-01-29T22:58:42.380Z,3.66
2023-01-29T23:01:49.567Z,3.71
2023-01-29T23:04:54.742Z,3.73
2023-01-29T23:08:10.221Z,3.74
2023-01-29T23:11:21.826Z,3.78
2023-01-29T23:14:32.511Z,3.80
2023-01-29T23:18:04.533Z,3.81
2023-01-29T23:21:49.728Z,3.81
2023-01-29T23:24:56.727Z,3.82
2023-01-29T23:28:12.211Z,3.89
2023-01-29T23:31:19.811Z,3.89
2023-01-29T23:34:38.775Z,3.94
2023-01-29T23:37:43.824Z,3.97
2023-01-29T23:41:14.117Z,3.99
2023-01-29T23:48:09.935Z,3.98
2023-01-29T23:51:39.643Z,4.06
2023-01-29T23:54:44.075Z,4.07
2023-01-29T23:57:52.816Z,4.11
